createdAt,value
2022-12-29T00:00:50.929Z,100423.00
2022-12-29T00:04:56.927Z,100431.69
2022-12-29T00:08:58.896Z,100431.75
2022-12-29T00:13:19.484Z,100434.84
2022-12-29T00:17:21.252Z,100430.34
2022-12-29T00:21:43.635Z,100410.19
2022-12-29T00:26:03.660Z,100413.47
2022-12-29T00:30:39.487Z,100414.25
2022-12-29T00:34:59.816Z,100413.34
2022-12-29T00:39:24.959Z,100421.88
2022-12-29T00:43:45.361Z,100417.75
2022-12-29T00:47:47.328Z,100417.63
2022-12-29T00:51:49.284Z,100428.09
2022-12-29T00:55:51.206Z,100431.41
2022-12-29T00:59:52.921Z,100424.72
2022-12-29T01:04:00.123Z,100407.22
2022-12-29T01:08:03.944Z,100408.50
2022-12-29T01:12:07.264Z,100413.09
2022-12-29T01:16:10.007Z,100402.28
2022-12-29T01:20:12.802Z,100395.50
2022-12-29T01:24:16.487Z,100387.88
2022-12-29T01:28:25.663Z,100395.69
2022-12-29T01:32:27.754Z,100381.03
2022-12-29T01:36:29.752Z,100374.50
2022-12-29T01:40:31.676Z,100374.31
2022-12-29T01:44:56.770Z,100366.44
2022-12-29T01:49:21.772Z,100355.44
2022-12-29T01:53:29.311Z,100352.19
2022-12-29T01:57:35.663Z,100358.69
2022-12-29T02:01:38.117Z,100353.78
2022-12-29T02:06:14.143Z,100347.59
2022-12-29T02:10:16.428Z,100347.41
2022-12-29T02:14:18.337Z,100346.91
2022-12-29T02:18:34.810Z,100351.31
2022-12-29T02:23:12.162Z,100325.25
2022-12-29T02:27:46.624Z,100334.44
2022-12-29T02:32:14.568Z,100325.69
2022-12-29T02:37:06.321Z,100328.44
2022-12-29T02:41:20.153Z,100315.31
2022-12-29T02:45:33.532Z,100326.63
2022-12-29T02:49:48.661Z,100307.56
2022-12-29T02:54:10.753Z,100303.31
2022-12-29T02:58:22.930Z,100285.63
2022-12-29T03:02:59.761Z,100277.34
2022-12-29T03:07:23.955Z,100284.50
2022-12-29T03:11:54.212Z,100260.09
2022-12-29T03:16:12.649Z,100265.47
2022-12-29T03:20:23.355Z,100259.84
2022-12-29T03:24:32.212Z,100249.38
2022-12-29T03:28:39.852Z,100234.13
2022-12-29T03:32:51.550Z,100227.34
2022-12-29T03:37:00.591Z,100219.16
2022-12-29T03:41:07.525Z,100203.13
2022-12-29T03:45:10.586Z,100187.94
2022-12-29T03:49:13.047Z,100170.19
2022-12-29T03:53:14.998Z,100153.28
2022-12-29T03:57:17.737Z,100130.13
2022-12-29T04:01:32.159Z,100142.06
2022-12-29T04:05:34.316Z,100161.81
2022-12-29T04:09:36.169Z,100158.47
2022-12-29T04:13:41.729Z,100164.38
2022-12-29T04:17:45.157Z,100164.63
2022-12-29T04:21:48.095Z,100148.84
2022-12-29T04:25:49.922Z,100140.94
2022-12-29T04:29:52.213Z,100139.16
2022-12-29T04:34:26.351Z,100150.44
2022-12-29T04:38:29.060Z,100164.25
2022-12-29T04:42:31.182Z,100151.84
2022-12-29T04:46:32.901Z,100123.78
2022-12-29T04:50:38.306Z,100126.44
2022-12-29T04:54:51.779Z,100131.34
2022-12-29T04:58:56.237Z,100132.88
2022-12-29T05:02:58.223Z,100137.13
2022-12-29T05:07:00.964Z,100125.50
2022-12-29T05:11:03.321Z,100123.50
2022-12-29T05:15:07.578Z,100118.78
2022-12-29T05:19:10.660Z,100128.34
2022-12-29T05:23:14.301Z,100126.75
2022-12-29T05:27:17.575Z,100136.78
2022-12-29T05:31:38.399Z,100140.22
2022-12-29T05:35:41.707Z,100137.41
2022-12-29T05:39:43.784Z,100139.09
2022-12-29T05:43:45.948Z,100132.09
2022-12-29T05:48:06.058Z,100124.22
2022-12-29T05:52:46.193Z,100122.03
2022-12-29T05:56:48.823Z,100134.69
2022-12-29T06:00:52.042Z,100136.13
2022-12-29T06:04:54.379Z,100118.06
2022-12-29T06:08:56.405Z,100119.06
2022-12-29T06:12:59.526Z,100122.88
2022-12-29T06:17:01.504Z,100116.22
2022-12-29T06:21:05.871Z,100110.97
2022-12-29T06:25:08.586Z,100128.94
2022-12-29T06:29:11.310Z,100147.56
2022-12-29T06:33:13.763Z,100153.47
2022-12-29T06:37:16.441Z,100152.81
2022-12-29T06:41:18.244Z,100154.06
2022-12-29T06:45:59.189Z,100162.34
2022-12-29T06:50:01.604Z,100169.00
2022-12-29T06:54:03.766Z,100170.44
2022-12-29T06:58:05.640Z,100182.19
2022-12-29T07:02:08.101Z,100174.88
2022-12-29T07:06:09.994Z,100167.53
2022-12-29T07:10:12.397Z,100170.84
2022-12-29T07:14:14.267Z,100150.25
2022-12-29T07:18:16.297Z,100138.16
2022-12-29T07:22:19.178Z,100146.56
2022-12-29T07:26:21.236Z,100145.53
2022-12-29T07:30:23.194Z,100153.53
2022-12-29T07:34:25.293Z,100152.97
2022-12-29T07:38:27.165Z,100151.16
2022-12-29T07:42:29.236Z,100156.41
2022-12-29T07:46:56.704Z,100162.41
2022-12-29T07:50:56.905Z,100173.47
2022-12-29T07:54:58.694Z,100170.03
2022-12-29T07:59:00.844Z,100180.25
2022-12-29T08:03:02.803Z,100170.94
2022-12-29T08:07:06.059Z,100169.66
2022-12-29T08:11:07.841Z,100169.16
2022-12-29T08:15:12.031Z,100161.22
2022-12-29T08:19:14.667Z,100160.63
2022-12-29T08:23:16.704Z,100155.22
2022-12-29T08:27:20.947Z,100162.97
2022-12-29T08:31:24.874Z,100162.69
2022-12-29T08:35:26.690Z,100176.72
2022-12-29T08:39:29.919Z,100173.31
2022-12-29T08:43:31.991Z,100174.66
2022-12-29T08:47:33.994Z,100190.84
2022-12-29T08:51:36.690Z,100199.84
2022-12-29T08:55:38.659Z,100201.63
2022-12-29T08:59:41.055Z,100191.41
2022-12-29T09:04:13.527Z,100189.97
2022-12-29T09:08:08.352Z,100199.97
2022-12-29T09:12:10.066Z,100194.78
2022-12-29T09:16:12.674Z,100189.56
2022-12-29T09:20:17.007Z,100190.31
2022-12-29T09:24:18.976Z,100189.09
2022-12-29T09:28:21.757Z,100187.09
2022-12-29T09:32:23.994Z,100180.88
2022-12-29T09:36:26.643Z,100183.88
2022-12-29T09:40:32.417Z,100180.50
2022-12-29T09:44:52.601Z,100193.56
2022-12-29T09:49:07.110Z,100175.63
2022-12-29T09:53:12.616Z,100173.66
2022-12-29T09:57:19.205Z,100170.78
2022-12-29T10:01:35.170Z,100158.75
2022-12-29T10:05:56.633Z,100152.50
2022-12-29T10:10:10.541Z,100146.84
2022-12-29T10:14:34.160Z,100153.38
2022-12-29T10:19:03.826Z,100139.00
2022-12-29T10:23:05.756Z,100139.28
2022-12-29T10:27:16.777Z,100130.66
2022-12-29T10:31:31.476Z,100131.69
2022-12-29T10:35:40.028Z,100134.69
2022-12-29T10:39:52.999Z,100142.41
2022-12-29T10:43:57.899Z,100138.41
2022-12-29T10:48:21.057Z,100130.16
2022-12-29T10:52:24.432Z,100123.78
2022-12-29T10:56:41.237Z,100111.13
2022-12-29T11:00:44.347Z,100111.13
2022-12-29T11:05:00.935Z,100109.63
2022-12-29T11:09:13.395Z,100112.03
2022-12-29T11:13:26.595Z,100101.88
2022-12-29T11:17:28.354Z,100117.22
2022-12-29T11:21:43.110Z,100121.06
2022-12-29T11:25:45.336Z,100112.06
2022-12-29T11:29:47.695Z,100109.78
2022-12-29T11:33:49.713Z,100101.31
2022-12-29T11:37:59.031Z,100098.41
2022-12-29T11:42:03.813Z,100107.59
2022-12-29T11:46:06.480Z,100107.53
2022-12-29T11:50:09.666Z,100103.38
2022-12-29T11:54:19.409Z,100101.78
2022-12-29T11:58:21.428Z,100098.66
2022-12-29T12:02:38.785Z,100107.34
2022-12-29T12:07:00.328Z,100104.31
2022-12-29T12:11:11.995Z,100098.97
2022-12-29T12:15:21.156Z,100089.22
2022-12-29T12:19:37.289Z,100098.22
2022-12-29T12:24:02.809Z,100095.94
2022-12-29T12:28:22.456Z,100089.94
2022-12-29T12:32:51.486Z,100086.66
2022-12-29T12:37:02.309Z,100082.00
2022-12-29T12:41:22.291Z,100061.56
2022-12-29T12:45:48.300Z,100071.84
2022-12-29T12:50:04.141Z,100065.28
2022-12-29T12:54:43.019Z,100057.16
2022-12-29T12:59:20.393Z,100060.78
2022-12-29T13:03:25.363Z,100052.63
2022-12-29T13:07:55.499Z,100060.31
2022-12-29T13:12:11.266Z,100058.03
2022-12-29T13:16:27.932Z,100063.31
2022-12-29T13:20:43.584Z,100068.31
2022-12-29T13:24:59.250Z,100063.50
2022-12-29T13:29:13.832Z,100076.50
2022-12-29T13:33:31.209Z,100065.59
2022-12-29T13:37:37.503Z,100072.94
2022-12-29T13:41:51.293Z,100078.03
2022-12-29T13:46:15.043Z,100070.31
2022-12-29T13:50:20.869Z,100071.16
2022-12-29T13:54:35.316Z,100078.47
2022-12-29T13:58:54.416Z,100080.25
2022-12-29T14:03:14.947Z,100093.06
2022-12-29T14:07:18.713Z,100088.66
2022-12-29T14:11:25.673Z,100092.53
2022-12-29T14:15:27.718Z,100092.16
2022-12-29T14:19:42.817Z,100082.91
2022-12-29T14:23:47.490Z,100087.13
2022-12-29T14:27:55.117Z,100093.66
2022-12-29T14:31:57.098Z,100087.22
2022-12-29T14:36:40.169Z,100078.88
2022-12-29T14:40:42.276Z,100076.34
2022-12-29T14:44:48.453Z,100071.56
2022-12-29T14:48:57.854Z,100068.44
2022-12-29T14:53:04.425Z,100067.19
2022-12-29T14:57:12.100Z,100076.72
2022-12-29T15:01:50.033Z,100075.72
2022-12-29T15:05:57.443Z,100077.25
2022-12-29T15:10:06.114Z,100069.41
2022-12-29T15:14:30.147Z,100077.81
2022-12-29T15:18:33.974Z,100081.09
2022-12-29T15:22:36.141Z,100088.06
2022-12-29T15:26:41.392Z,100087.47
2022-12-29T15:30:58.213Z,100082.72
2022-12-29T15:35:02.202Z,100082.25
2022-12-29T15:39:27.920Z,100077.78
2022-12-29T15:43:54.719Z,100080.81
2022-12-29T15:47:57.287Z,100073.59
2022-12-29T15:51:59.967Z,100075.38
2022-12-29T15:56:07.874Z,100072.81
2022-12-29T16:00:28.964Z,100080.22
2022-12-29T16:04:43.222Z,100078.53
2022-12-29T16:09:04.673Z,100082.34
2022-12-29T16:13:24.868Z,100082.50
2022-12-29T16:17:30.984Z,100072.22
2022-12-29T16:21:36.570Z,100075.41
2022-12-29T16:25:38.581Z,100081.84
2022-12-29T16:29:40.996Z,100083.94
2022-12-29T16:33:47.169Z,100086.97
2022-12-29T16:38:07.144Z,100079.38
2022-12-29T16:42:51.278Z,100094.91
2022-12-29T16:47:01.311Z,100098.44
2022-12-29T16:51:18.910Z,100094.06
2022-12-29T16:55:21.156Z,100094.69
2022-12-29T16:59:22.954Z,100101.47
2022-12-29T17:03:33.842Z,100102.94
2022-12-29T17:07:36.416Z,100108.50
2022-12-29T17:12:02.505Z,100104.06
2022-12-29T17:16:08.980Z,100099.59
2022-12-29T17:20:21.219Z,100099.81
2022-12-29T17:24:22.979Z,100101.19
2022-12-29T17:28:28.097Z,100100.16
2022-12-29T17:32:30.711Z,100101.03
2022-12-29T17:36:32.478Z,100096.13
2022-12-29T17:40:36.273Z,100089.28
2022-12-29T17:44:37.996Z,100104.47
2022-12-29T17:48:40.005Z,100098.81
2022-12-29T17:52:43.254Z,100090.50
2022-12-29T17:56:45.414Z,100092.06
2022-12-29T18:00:49.182Z,100088.78
2022-12-29T18:04:51.793Z,100098.13
2022-12-29T18:08:53.629Z,100102.41
2022-12-29T18:12:59.745Z,100103.09
2022-12-29T18:17:01.751Z,100112.88
2022-12-29T18:21:03.571Z,100115.13
2022-12-29T18:25:23.962Z,100114.94
2022-12-29T18:29:25.929Z,100117.53
2022-12-29T18:33:29.238Z,100118.56
2022-12-29T18:37:30.964Z,100124.22
2022-12-29T18:41:33.507Z,100120.28
2022-12-29T18:45:35.377Z,100113.91
2022-12-29T18:49:37.320Z,100115.19
2022-12-29T18:53:39.263Z,100109.97
2022-12-29T18:57:41.196Z,100111.47
2022-12-29T19:01:43.462Z,100113.50
2022-12-29T19:05:47.123Z,100116.88
2022-12-29T19:09:49.126Z,100107.09
2022-12-29T19:13:50.831Z,100097.72
2022-12-29T19:18:32.398Z,100105.22
2022-12-29T19:22:17.507Z,100105.63
2022-12-29T19:26:36.764Z,100106.06
2022-12-29T19:30:38.925Z,100108.00
2022-12-29T19:34:40.883Z,100107.75
2022-12-29T19:38:42.947Z,100106.28
2022-12-29T19:42:45.247Z,100104.38
2022-12-29T19:46:47.062Z,100114.00
2022-12-29T19:50:49.320Z,100113.91
2022-12-29T19:54:51.241Z,100118.16
2022-12-29T19:58:53.228Z,100107.25
2022-12-29T20:02:55.016Z,100116.38
2022-12-29T20:06:57.091Z,100116.59
2022-12-29T20:11:01.390Z,100103.34
2022-12-29T20:15:05.560Z,100116.09
2022-12-29T20:19:07.317Z,100112.66
2022-12-29T20:23:09.471Z,100114.00
2022-12-29T20:27:13.384Z,100116.00
2022-12-29T20:31:23.167Z,100109.28
2022-12-29T20:35:25.115Z,100105.88
2022-12-29T20:39:27.100Z,100116.53
2022-12-29T20:43:28.825Z,100123.59
2022-12-29T20:47:30.808Z,100120.50
2022-12-29T20:51:59.182Z,100118.56
2022-12-29T20:55:55.565Z,100103.38
2022-12-29T20:59:57.546Z,100112.75
2022-12-29T21:03:59.803Z,100111.13
2022-12-29T21:08:01.858Z,100112.91
2022-12-29T21:12:04.992Z,100118.06
2022-12-29T21:16:09.302Z,100118.38
2022-12-29T21:20:19.988Z,100112.91
2022-12-29T21:24:22.311Z,100110.38
2022-12-29T21:28:24.730Z,100113.22
2022-12-29T21:32:27.850Z,100113.41
2022-12-29T21:36:29.965Z,100115.09
2022-12-29T21:40:32.416Z,100119.06
2022-12-29T21:44:52.515Z,100126.22
2022-12-29T21:48:54.458Z,100117.22
2022-12-29T21:52:56.076Z,100115.34
2022-12-29T21:56:58.161Z,100115.56
2022-12-29T22:01:18.655Z,100116.78
2022-12-29T22:05:39.374Z,100121.44
2022-12-29T22:09:59.801Z,100114.19
2022-12-29T22:14:02.756Z,100111.81
2022-12-29T22:18:04.881Z,100118.88
2022-12-29T22:22:06.904Z,100122.78
2022-12-29T22:26:11.021Z,100131.81
2022-12-29T22:30:13.581Z,100124.97
2022-12-29T22:34:15.377Z,100130.56
2022-12-29T22:38:17.342Z,100144.16
2022-12-29T22:42:19.151Z,100149.88
2022-12-29T22:46:21.224Z,100148.03
2022-12-29T22:50:22.961Z,100145.44
2022-12-29T22:54:25.129Z,100154.38
2022-12-29T22:58:26.967Z,100154.38
2022-12-29T23:02:30.432Z,100158.44
2022-12-29T23:06:33.650Z,100161.63
2022-12-29T23:10:35.345Z,100160.28
2022-12-29T23:14:37.480Z,100164.66
2022-12-29T23:18:39.506Z,100163.91
2022-12-29T23:22:41.518Z,100153.84
2022-12-29T23:26:45.384Z,100159.84
2022-12-29T23:30:47.337Z,100164.22
2022-12-29T23:34:49.192Z,100164.41
2022-12-29T23:38:51.205Z,100167.34
2022-12-29T23:42:52.958Z,100178.16
2022-12-29T23:46:54.938Z,100183.88
2022-12-29T23:50:56.646Z,100178.28
2022-12-29T23:54:58.657Z,100174.72
2022-12-29T23:59:03.544Z,100167.78
